createdAt,value
2017-09-28T00:00:24.616Z,61.9
2017-09-28T00:01:27.326Z,61.9
2017-09-28T00:02:29.715Z,61.9
2017-09-28T00:03:32.093Z,62
2017-09-28T00:04:34.480Z,62
2017-09-28T00:05:36.856Z,62.1
2017-09-28T00:06:39.235Z,62.1
2017-09-28T00:07:41.608Z,62
2017-09-28T00:08:43.996Z,62.1
2017-09-28T00:09:46.364Z,62.1
2017-09-28T00:10:48.751Z,62
2017-09-28T00:11:51.134Z,62
2017-09-28T00:12:53.521Z,61.9
2017-09-28T00:13:55.903Z,62
2017-09-28T00:14:58.290Z,62
2017-09-28T00:16:00.676Z,62
2017-09-28T00:17:03.400Z,61.9
2017-09-28T00:18:05.784Z,62
2017-09-28T00:19:08.160Z,62.1
2017-09-28T00:20:10.885Z,62.1
2017-09-28T00:21:13.284Z,62
2017-09-28T00:22:15.997Z,61.9
2017-09-28T00:23:18.375Z,62
2017-09-28T00:24:20.756Z,62
2017-09-28T00:25:23.136Z,62
2017-09-28T00:26:25.523Z,62
2017-09-28T00:27:27.903Z,62
2017-09-28T00:28:30.275Z,62
2017-09-28T00:29:32.665Z,62
2017-09-28T00:30:35.080Z,62
2017-09-28T00:31:37.468Z,62
2017-09-28T00:32:39.853Z,62.1
2017-09-28T00:33:42.235Z,62.1
2017-09-28T00:34:44.626Z,62.2
2017-09-28T00:35:46.999Z,62.2
2017-09-28T00:36:49.380Z,62.1
2017-09-28T00:37:51.757Z,62.1
2017-09-28T00:38:54.143Z,62.1
2017-09-28T00:39:56.875Z,62.1
2017-09-28T00:40:59.284Z,62.1
2017-09-28T00:42:01.667Z,62.1
2017-09-28T00:43:04.061Z,62.1
2017-09-28T00:44:06.466Z,62
2017-09-28T00:45:08.860Z,62
2017-09-28T00:46:11.284Z,62.1
2017-09-28T00:47:13.675Z,62
2017-09-28T00:48:16.059Z,62.1
2017-09-28T00:49:18.456Z,62.1
2017-09-28T00:50:20.847Z,62.1
2017-09-28T00:51:23.269Z,62
2017-09-28T00:52:25.667Z,62.1
2017-09-28T00:53:28.044Z,62
2017-09-28T00:54:30.454Z,62.1
2017-09-28T00:55:33.186Z,62
2017-09-28T00:56:35.576Z,62.1
2017-09-28T00:57:37.960Z,62
2017-09-28T00:58:40.491Z,62
2017-09-28T00:59:42.874Z,62.1
2017-09-28T01:00:45.284Z,62
2017-09-28T01:01:47.662Z,62.1
2017-09-28T01:02:50.046Z,62.1
2017-09-28T01:03:52.430Z,62.2
2017-09-28T01:04:54.822Z,62.1
2017-09-28T01:05:57.573Z,62
2017-09-28T01:06:59.942Z,62
2017-09-28T01:08:02.331Z,62
2017-09-28T01:09:04.719Z,62
2017-09-28T01:10:07.464Z,62
2017-09-28T01:11:09.850Z,62.1
2017-09-28T01:12:12.225Z,62.1
2017-09-28T01:13:14.612Z,62.2
2017-09-28T01:14:17.000Z,62.2
2017-09-28T01:15:19.386Z,62.2
2017-09-28T01:16:21.758Z,62.2
2017-09-28T01:17:24.138Z,62.2
2017-09-28T01:18:26.511Z,62.2
2017-09-28T01:19:28.898Z,62.3
2017-09-28T01:20:31.277Z,62.2
2017-09-28T01:21:33.658Z,62.1
2017-09-28T01:22:36.047Z,62.2
2017-09-28T01:23:38.426Z,62.2
2017-09-28T01:24:40.807Z,62.2
2017-09-28T01:25:43.545Z,62.2
2017-09-28T01:26:45.926Z,62.2
2017-09-28T01:27:48.299Z,62.3
2017-09-28T01:28:50.680Z,62.3
2017-09-28T01:29:53.060Z,62.3
2017-09-28T01:30:55.448Z,62.2
2017-09-28T01:31:57.826Z,62.3
2017-09-28T01:33:00.198Z,62.2
2017-09-28T01:34:02.594Z,62.2
2017-09-28T01:35:04.973Z,62.1
2017-09-28T01:36:07.357Z,62.1
2017-09-28T01:37:09.742Z,62.2
2017-09-28T01:38:12.486Z,62.2
2017-09-28T01:39:15.206Z,62.2
2017-09-28T01:40:17.596Z,62.2
2017-09-28T01:41:19.968Z,62.2
2017-09-28T01:42:22.345Z,62.2
2017-09-28T01:43:24.732Z,62.3
2017-09-28T01:44:27.103Z,62.2
2017-09-28T01:45:29.482Z,62.2
2017-09-28T01:46:31.856Z,62.3
2017-09-28T01:47:34.238Z,62.2
2017-09-28T01:48:36.958Z,62.1
2017-09-28T01:49:39.339Z,62.1
2017-09-28T01:50:41.728Z,62.2
2017-09-28T01:51:44.096Z,62.2
2017-09-28T01:52:46.488Z,62.2
2017-09-28T01:53:48.869Z,62.3
2017-09-28T01:54:51.249Z,62.3
2017-09-28T01:55:53.624Z,62.3
2017-09-28T01:56:56.005Z,62.3
2017-09-28T01:57:58.376Z,62.2
2017-09-28T01:59:00.758Z,62.3
2017-09-28T02:00:03.134Z,62.2
2017-09-28T02:01:05.511Z,62.3
2017-09-28T02:02:07.896Z,62.4
2017-09-28T02:03:10.275Z,62.4
2017-09-28T02:04:12.641Z,62.4
2017-09-28T02:05:15.030Z,62.3
2017-09-28T02:06:17.753Z,62.4
2017-09-28T02:07:20.129Z,62.4
2017-09-28T02:08:22.515Z,62.5
2017-09-28T02:09:24.889Z,62.5
2017-09-28T02:10:27.618Z,62.6
2017-09-28T02:11:30.008Z,62.5
2017-09-28T02:12:32.381Z,62.5
2017-09-28T02:13:35.100Z,62.5
2017-09-28T02:14:37.485Z,62.6
2017-09-28T02:15:39.849Z,62.6
2017-09-28T02:16:42.225Z,62.6
2017-09-28T02:17:44.962Z,62.6
2017-09-28T02:18:47.344Z,62.6
2017-09-28T02:19:49.742Z,62.6
2017-09-28T02:20:52.113Z,62.5
2017-09-28T02:21:54.500Z,62.5
2017-09-28T02:22:56.888Z,62.5
2017-09-28T02:23:59.263Z,62.5
2017-09-28T02:25:01.633Z,62.5
2017-09-28T02:26:04.016Z,62.5
2017-09-28T02:27:06.400Z,62.5
2017-09-28T02:28:08.776Z,62.5
2017-09-28T02:29:11.154Z,62.5
2017-09-28T02:30:13.534Z,62.5
2017-09-28T02:31:15.934Z,62.5
2017-09-28T02:32:18.302Z,62.6
2017-09-28T02:33:20.693Z,62.6
2017-09-28T02:34:23.414Z,62.5
2017-09-28T02:35:25.789Z,62.6
2017-09-28T02:36:28.168Z,62.6
2017-09-28T02:37:30.547Z,62.5
2017-09-28T02:38:32.918Z,62.5
2017-09-28T02:39:35.311Z,62.6
2017-09-28T02:40:37.691Z,62.6
2017-09-28T02:41:40.065Z,62.5
2017-09-28T02:42:42.451Z,62.5
2017-09-28T02:43:44.827Z,62.5
2017-09-28T02:44:47.543Z,62.6
2017-09-28T02:45:49.925Z,62.6
2017-09-28T02:46:52.299Z,62.6
2017-09-28T02:47:54.686Z,62.5
2017-09-28T02:48:57.083Z,62.4
2017-09-28T02:49:59.463Z,62.5
2017-09-28T02:51:01.832Z,62.5
2017-09-28T02:52:04.215Z,62.6
2017-09-28T02:53:06.592Z,62.6
2017-09-28T02:54:08.981Z,62.6
2017-09-28T02:55:11.354Z,62.6
2017-09-28T02:56:13.724Z,62.7
2017-09-28T02:57:16.442Z,62.6
2017-09-28T02:58:19.170Z,62.6
2017-09-28T02:59:21.547Z,62.6
2017-09-28T03:00:23.920Z,62.6
2017-09-28T03:01:26.300Z,62.6
2017-09-28T03:02:28.686Z,62.6
2017-09-28T03:03:31.054Z,62.6
2017-09-28T03:04:33.428Z,62.7
2017-09-28T03:05:35.823Z,62.6
2017-09-28T03:06:38.196Z,62.6
2017-09-28T03:07:40.576Z,62.6
2017-09-28T03:08:42.960Z,62.6
2017-09-28T03:09:45.345Z,62.7
2017-09-28T03:10:48.066Z,62.6
2017-09-28T03:11:50.449Z,62.6
2017-09-28T03:12:52.814Z,62.6
2017-09-28T03:13:55.211Z,62.7
2017-09-28T03:14:57.916Z,62.8
2017-09-28T03:16:00.305Z,62.6
2017-09-28T03:17:02.687Z,62.7
2017-09-28T03:18:05.066Z,62.6
2017-09-28T03:19:07.786Z,62.7
2017-09-28T03:20:10.171Z,62.6
2017-09-28T03:21:12.541Z,62.6
2017-09-28T03:22:14.926Z,62.7
2017-09-28T03:23:17.298Z,62.7
2017-09-28T03:24:19.682Z,62.7
2017-09-28T03:25:22.078Z,62.7
2017-09-28T03:26:24.463Z,62.7
2017-09-28T03:27:26.875Z,62.8
2017-09-28T03:28:29.258Z,62.8
2017-09-28T03:29:31.661Z,62.8
2017-09-28T03:30:34.062Z,62.7
2017-09-28T03:31:36.460Z,62.8
2017-09-28T03:32:39.514Z,62.8
2017-09-28T03:33:41.900Z,62.8
2017-09-28T03:34:44.281Z,62.8
2017-09-28T03:35:46.669Z,62.9
2017-09-28T03:36:49.053Z,62.8
2017-09-28T03:37:51.469Z,62.9
2017-09-28T03:38:53.873Z,62.9
2017-09-28T03:39:56.257Z,62.9
2017-09-28T03:40:58.979Z,62.9
2017-09-28T03:42:01.353Z,62.9
2017-09-28T03:43:03.736Z,62.9
2017-09-28T03:44:06.115Z,62.9
2017-09-28T03:45:08.493Z,62.9
2017-09-28T03:46:10.910Z,62.9
2017-09-28T03:47:13.281Z,62.9
2017-09-28T03:48:15.673Z,62.9
2017-09-28T03:49:18.071Z,62.9
2017-09-28T03:50:20.443Z,62.9
2017-09-28T03:51:22.855Z,62.8
2017-09-28T03:52:25.234Z,62.8
2017-09-28T03:53:27.633Z,62.8
2017-09-28T03:54:30.045Z,62.9
2017-09-28T03:55:32.432Z,62.8
2017-09-28T03:56:34.841Z,62.8
2017-09-28T03:57:37.579Z,62.8
2017-09-28T03:58:39.950Z,62.8
2017-09-28T03:59:42.324Z,62.8
2017-09-28T04:00:44.756Z,62.8
2017-09-28T04:01:47.165Z,62.9
2017-09-28T04:02:49.553Z,62.9
2017-09-28T04:03:51.969Z,62.8
2017-09-28T04:04:54.349Z,62.9
2017-09-28T04:05:56.730Z,62.9
2017-09-28T04:06:59.110Z,62.9
2017-09-28T04:08:01.493Z,62.9
2017-09-28T04:09:03.864Z,62.9
2017-09-28T04:10:06.235Z,62.9
2017-09-28T04:11:08.608Z,62.9
2017-09-28T04:12:10.982Z,62.9
2017-09-28T04:13:13.371Z,62.9
2017-09-28T04:14:15.754Z,62.9
2017-09-28T04:15:18.133Z,62.9
2017-09-28T04:16:20.514Z,63
2017-09-28T04:17:23.242Z,63
2017-09-28T04:18:25.612Z,63
2017-09-28T04:19:27.990Z,62.9
2017-09-28T04:20:30.374Z,62.9
2017-09-28T04:21:32.745Z,63
2017-09-28T04:22:35.809Z,62.9
2017-09-28T04:23:38.181Z,62.9
2017-09-28T04:24:40.560Z,62.9
2017-09-28T04:25:42.946Z,62.9
2017-09-28T04:26:45.327Z,63
2017-09-28T04:27:47.700Z,63
2017-09-28T04:28:50.078Z,63
2017-09-28T04:29:52.803Z,63.1
2017-09-28T04:30:55.181Z,63
2017-09-28T04:31:57.562Z,63.1
2017-09-28T04:32:59.947Z,63.2
2017-09-28T04:34:02.327Z,63.1
2017-09-28T04:35:05.049Z,63.2
2017-09-28T04:36:07.433Z,63.1
2017-09-28T04:37:09.830Z,63.1
2017-09-28T04:38:12.538Z,63.1
2017-09-28T04:39:14.922Z,63.2
2017-09-28T04:40:17.303Z,63.3
2017-09-28T04:41:20.025Z,63.2
2017-09-28T04:42:22.410Z,63.2
2017-09-28T04:43:24.790Z,63.1
2017-09-28T04:44:27.163Z,63.1
2017-09-28T04:45:29.546Z,63.2
2017-09-28T04:46:31.921Z,63.1
2017-09-28T04:47:34.296Z,63.1
2017-09-28T04:48:36.683Z,63.2
2017-09-28T04:49:39.066Z,63.1
2017-09-28T04:50:41.447Z,63
2017-09-28T04:51:43.836Z,63
2017-09-28T04:52:46.204Z,63
2017-09-28T04:53:48.585Z,63
2017-09-28T04:54:50.966Z,63
2017-09-28T04:55:53.343Z,63.2
2017-09-28T04:56:55.726Z,63.1
2017-09-28T04:57:58.111Z,63.1
2017-09-28T04:59:00.489Z,63.3
2017-09-28T05:00:02.873Z,63.1
2017-09-28T05:01:05.254Z,63
2017-09-28T05:02:07.652Z,63
2017-09-28T05:03:10.379Z,63
2017-09-28T05:04:12.750Z,63.1
2017-09-28T05:05:15.124Z,62.9
2017-09-28T05:06:17.499Z,62.9
2017-09-28T05:07:19.880Z,63
2017-09-28T05:08:22.261Z,63
2017-09-28T05:09:24.631Z,63
2017-09-28T05:10:27.016Z,63
2017-09-28T05:11:29.408Z,63.2
2017-09-28T05:12:31.779Z,63.2
2017-09-28T05:13:34.158Z,63.2
2017-09-28T05:14:36.537Z,63.3
2017-09-28T05:15:38.909Z,63.4
2017-09-28T05:16:41.299Z,63.4
2017-09-28T05:17:43.683Z,63.4
2017-09-28T05:18:46.053Z,63.4
2017-09-28T05:19:48.438Z,63.4
2017-09-28T05:20:50.826Z,63.4
2017-09-28T05:21:53.205Z,63.4
2017-09-28T05:22:55.583Z,63.4
2017-09-28T05:23:57.953Z,63.3
2017-09-28T05:25:00.327Z,63.3
2017-09-28T05:26:02.723Z,63.3
2017-09-28T05:27:05.099Z,63.2
2017-09-28T05:28:07.492Z,63.2
2017-09-28T05:29:10.209Z,63.2
2017-09-28T05:30:12.591Z,63.3
2017-09-28T05:31:14.971Z,63.2
2017-09-28T05:32:17.347Z,63.2
2017-09-28T05:33:19.729Z,63.1
2017-09-28T05:34:22.109Z,63.2
2017-09-28T05:35:24.476Z,63.1
2017-09-28T05:36:26.859Z,63.1
2017-09-28T05:37:29.249Z,63.1
2017-09-28T05:38:31.631Z,63
2017-09-28T05:39:34.016Z,62.9
2017-09-28T05:40:36.396Z,62.9
2017-09-28T05:41:38.768Z,62.9
2017-09-28T05:42:41.171Z,62.9
2017-09-28T05:43:43.885Z,63
2017-09-28T05:44:46.257Z,62.9
2017-09-28T05:45:48.646Z,62.9
2017-09-28T05:46:51.016Z,63
2017-09-28T05:47:53.394Z,63
2017-09-28T05:48:55.779Z,63
2017-09-28T05:49:58.148Z,63
2017-09-28T05:51:00.516Z,63.1
2017-09-28T05:52:02.908Z,63.1
2017-09-28T05:53:05.612Z,63.1
2017-09-28T05:54:07.987Z,63.1
2017-09-28T05:55:10.375Z,63.2
2017-09-28T05:56:12.761Z,63.2
2017-09-28T05:57:15.133Z,63.2
2017-09-28T05:58:17.511Z,63.2
2017-09-28T05:59:19.903Z,63.2
2017-09-28T06:00:22.630Z,63.1
2017-09-28T06:01:25.353Z,63.2
2017-09-28T06:02:27.722Z,63.2
2017-09-28T06:03:30.101Z,63.3
2017-09-28T06:04:32.482Z,63.3
2017-09-28T06:05:34.865Z,63.2
2017-09-28T06:06:37.236Z,63.3
2017-09-28T06:07:39.623Z,63.3
2017-09-28T06:08:42.008Z,63.3
2017-09-28T06:09:44.396Z,63.2
2017-09-28T06:10:46.771Z,63.2
2017-09-28T06:11:49.153Z,63.3
2017-09-28T06:12:51.535Z,63.2
2017-09-28T06:13:53.927Z,63.2
2017-09-28T06:14:56.306Z,63.4
2017-09-28T06:15:58.689Z,63.3
2017-09-28T06:17:01.066Z,63.3
2017-09-28T06:18:03.449Z,63.3
2017-09-28T06:19:05.842Z,63.4
2017-09-28T06:20:08.208Z,63.3
2017-09-28T06:21:10.583Z,63.2
2017-09-28T06:22:12.969Z,63.3
2017-09-28T06:23:15.352Z,63.3
2017-09-28T06:24:17.743Z,63.4
2017-09-28T06:25:20.113Z,63.3
2017-09-28T06:26:22.487Z,63.4
2017-09-28T06:27:24.878Z,63.3
2017-09-28T06:28:27.250Z,63.4
2017-09-28T06:29:29.623Z,63.3
2017-09-28T06:30:32.012Z,63.1
2017-09-28T06:31:34.391Z,63.1
2017-09-28T06:32:36.761Z,63
2017-09-28T06:33:39.154Z,63
2017-09-28T06:34:41.516Z,63
2017-09-28T06:35:43.909Z,62.9
2017-09-28T06:36:46.288Z,63
2017-09-28T06:37:48.669Z,63
2017-09-28T06:38:51.049Z,62.9
2017-09-28T06:39:53.432Z,63.1
2017-09-28T06:40:55.802Z,63.1
2017-09-28T06:41:58.198Z,63.1
2017-09-28T06:43:00.583Z,63
2017-09-28T06:44:02.966Z,63
2017-09-28T06:45:05.350Z,63
2017-09-28T06:46:07.729Z,63
2017-09-28T06:47:10.100Z,63
2017-09-28T06:48:12.485Z,62.9
2017-09-28T06:49:14.863Z,62.8
2017-09-28T06:50:17.243Z,62.8
2017-09-28T06:51:19.615Z,62.8
2017-09-28T06:52:22.676Z,62.7
2017-09-28T06:53:25.056Z,62.7
2017-09-28T06:54:27.444Z,62.5
2017-09-28T06:55:29.824Z,62.6
2017-09-28T06:56:32.212Z,62.6
2017-09-28T06:57:34.576Z,62.5
2017-09-28T06:58:36.960Z,62.5
2017-09-28T06:59:39.344Z,62.5
2017-09-28T07:00:41.715Z,62.4
2017-09-28T07:01:44.103Z,62.4
2017-09-28T07:02:46.516Z,62.4
2017-09-28T07:03:49.289Z,62.4
2017-09-28T07:04:51.733Z,62.5
2017-09-28T07:05:54.167Z,62.4
2017-09-28T07:06:56.603Z,62.5
2017-09-28T07:07:59.404Z,62.5
2017-09-28T07:09:02.189Z,62.5
2017-09-28T07:10:04.628Z,62.6
2017-09-28T07:11:07.064Z,62.8
2017-09-28T07:12:09.527Z,62.8
2017-09-28T07:13:12.310Z,62.7
2017-09-28T07:14:14.746Z,62.8
2017-09-28T07:15:17.166Z,62.7
2017-09-28T07:16:19.614Z,62.6
2017-09-28T07:17:22.063Z,62.7
2017-09-28T07:18:24.501Z,62.7
2017-09-28T07:19:26.940Z,62.6
2017-09-28T07:20:29.372Z,62.7
2017-09-28T07:21:31.813Z,62.7
2017-09-28T07:22:34.262Z,62.5
2017-09-28T07:23:36.699Z,62.4
2017-09-28T07:24:39.125Z,62.5
2017-09-28T07:25:41.561Z,62.6
2017-09-28T07:26:44.344Z,62.6
2017-09-28T07:27:46.783Z,62.6
2017-09-28T07:28:49.220Z,62.6
2017-09-28T07:29:51.665Z,62.5
2017-09-28T07:30:54.118Z,62.5
2017-09-28T07:31:56.546Z,62.4
2017-09-28T07:32:58.991Z,62.5
2017-09-28T07:34:01.760Z,62.3
2017-09-28T07:35:04.202Z,62
2017-09-28T07:36:06.632Z,62
2017-09-28T07:37:09.077Z,62.1
2017-09-28T07:38:11.540Z,62.2
2017-09-28T07:39:13.983Z,62.2
2017-09-28T07:40:16.746Z,62.1
2017-09-28T07:41:19.185Z,62
2017-09-28T07:42:21.617Z,62
2017-09-28T07:43:24.054Z,62
2017-09-28T07:44:26.492Z,62
2017-09-28T07:45:29.279Z,62.1
2017-09-28T07:46:31.717Z,62
2017-09-28T07:47:34.164Z,62.1
2017-09-28T07:48:36.600Z,62.2
2017-09-28T07:49:39.075Z,62.3
2017-09-28T07:50:41.471Z,62.3
2017-09-28T07:51:43.858Z,62.2
2017-09-28T07:52:46.627Z,62.3
2017-09-28T07:53:49.818Z,62.3
2017-09-28T07:54:52.209Z,62.2
2017-09-28T07:55:54.574Z,62.3
2017-09-28T07:56:56.970Z,62.2
2017-09-28T07:57:59.365Z,62
2017-09-28T07:59:02.094Z,61.8
2017-09-28T08:00:04.513Z,61.8
2017-09-28T08:01:06.930Z,61.7
2017-09-28T08:02:09.317Z,61.6
2017-09-28T08:03:11.719Z,61.7
2017-09-28T08:04:14.104Z,61.7
2017-09-28T08:05:16.493Z,61.8
2017-09-28T08:06:18.877Z,62
2017-09-28T08:07:21.271Z,62.1
2017-09-28T08:08:24.015Z,62.1
2017-09-28T08:09:26.410Z,61.6
2017-09-28T08:10:29.132Z,61.7
2017-09-28T08:11:31.525Z,61.9
2017-09-28T08:12:33.906Z,62
2017-09-28T08:13:36.293Z,62.3
2017-09-28T08:14:38.667Z,62.1
2017-09-28T08:15:41.390Z,62
2017-09-28T08:16:43.782Z,61.7
2017-09-28T08:17:46.179Z,61.4
2017-09-28T08:18:48.558Z,61.3
2017-09-28T08:19:51.282Z,60.9
2017-09-28T08:20:53.666Z,60.6
2017-09-28T08:21:56.067Z,60.9
2017-09-28T08:22:58.449Z,61.4
2017-09-28T08:24:00.825Z,61.7
2017-09-28T08:25:03.552Z,61.7
2017-09-28T08:26:05.936Z,61.3
2017-09-28T08:27:08.312Z,61.1
2017-09-28T08:28:10.693Z,61.2
2017-09-28T08:29:13.082Z,61.5
2017-09-28T08:30:15.462Z,61.7
2017-09-28T08:31:17.819Z,61.7
2017-09-28T08:32:20.180Z,61.7
2017-09-28T08:33:22.533Z,61.5
2017-09-28T08:34:24.890Z,61.1
2017-09-28T08:35:27.249Z,60.9
2017-09-28T08:36:29.606Z,60.7
2017-09-28T08:37:31.973Z,60.7
2017-09-28T08:38:34.332Z,60.7
2017-09-28T08:39:36.763Z,60.7
2017-09-28T08:40:39.118Z,60.6
2017-09-28T08:41:41.475Z,60.5
2017-09-28T08:42:43.834Z,60.4
2017-09-28T08:43:46.193Z,60.3
2017-09-28T08:44:48.553Z,60.3
2017-09-28T08:45:51.248Z,60.4
2017-09-28T08:46:53.605Z,60.4
2017-09-28T08:47:55.967Z,60.4
2017-09-28T08:48:58.326Z,60.4
2017-09-28T08:50:01.021Z,60.5
2017-09-28T08:51:03.378Z,60.5
2017-09-28T08:52:05.736Z,60.3
2017-09-28T08:53:08.092Z,60.2
2017-09-28T08:54:10.787Z,60.2
2017-09-28T08:55:13.146Z,60
2017-09-28T08:56:15.505Z,59.9
2017-09-28T08:57:17.865Z,60
2017-09-28T08:58:20.219Z,60
2017-09-28T08:59:22.576Z,59.7
2017-09-28T09:00:25.271Z,59.8
2017-09-28T09:01:27.634Z,59.9
2017-09-28T09:02:29.995Z,60
2017-09-28T09:03:32.351Z,60.2
2017-09-28T09:04:34.713Z,60.3
2017-09-28T09:05:37.406Z,60.2
2017-09-28T09:06:39.765Z,60.3
2017-09-28T09:07:42.132Z,60.4
2017-09-28T09:08:44.509Z,60.4
2017-09-28T09:09:47.222Z,60
2017-09-28T09:10:49.591Z,60
2017-09-28T09:11:52.322Z,60.1
2017-09-28T09:12:54.667Z,60.3
2017-09-28T09:13:57.025Z,60.2
2017-09-28T09:14:59.978Z,60.3
2017-09-28T09:16:03.379Z,60.4
2017-09-28T09:17:05.748Z,60.5
2017-09-28T09:18:08.898Z,60.8
2017-09-28T09:19:11.261Z,61.2
2017-09-28T09:20:13.628Z,61.4
2017-09-28T09:21:15.981Z,61.2
2017-09-28T09:22:18.342Z,61.1
2017-09-28T09:23:20.717Z,60.8
2017-09-28T09:24:23.077Z,60.5
2017-09-28T09:25:25.440Z,60.1
2017-09-28T09:26:28.146Z,59.9
2017-09-28T09:27:30.534Z,59.9
2017-09-28T09:28:32.890Z,59.9
2017-09-28T09:29:35.249Z,59.8
2017-09-28T09:30:37.611Z,59.4
2017-09-28T09:31:40.013Z,59.4
2017-09-28T09:32:42.371Z,59.4
2017-09-28T09:33:44.741Z,59.3
2017-09-28T09:34:47.110Z,59.2
2017-09-28T09:35:49.473Z,59.2
2017-09-28T09:36:51.851Z,59.3
2017-09-28T09:37:54.215Z,59.4
2017-09-28T09:38:56.584Z,59.6
2017-09-28T09:39:58.941Z,59.6
2017-09-28T09:41:01.303Z,59.3
2017-09-28T09:42:03.663Z,59.3
2017-09-28T09:43:06.383Z,59.3
2017-09-28T09:44:09.088Z,59.3
2017-09-28T09:45:11.449Z,59.2
2017-09-28T09:46:13.812Z,59
2017-09-28T09:47:16.173Z,58.9
2017-09-28T09:48:18.536Z,58.9
2017-09-28T09:49:20.897Z,58.8
2017-09-28T09:50:23.257Z,58.8
2017-09-28T09:51:25.622Z,58.6
2017-09-28T09:52:27.982Z,58.6
2017-09-28T09:53:30.341Z,58.7
2017-09-28T09:54:32.703Z,58.8
2017-09-28T09:55:35.062Z,58.5
2017-09-28T09:56:37.420Z,58.3
2017-09-28T09:57:39.784Z,58.2
2017-09-28T09:58:42.147Z,58.1
2017-09-28T09:59:44.509Z,58.4
2017-09-28T10:00:46.869Z,58.5
2017-09-28T10:01:49.231Z,58.7
2017-09-28T10:02:51.590Z,58.5
2017-09-28T10:03:53.949Z,58.4
2017-09-28T10:04:56.312Z,58.5
2017-09-28T10:05:58.674Z,58.5
2017-09-28T10:07:01.037Z,58.5
2017-09-28T10:08:03.732Z,58.4
2017-09-28T10:09:06.431Z,58.3
2017-09-28T10:10:08.792Z,58.4
2017-09-28T10:11:11.153Z,58.4
2017-09-28T10:12:13.514Z,58.4
2017-09-28T10:13:15.875Z,58.3
2017-09-28T10:14:18.236Z,58.2
2017-09-28T10:15:20.599Z,58.2
2017-09-28T10:16:22.957Z,58.1
2017-09-28T10:17:25.317Z,58.2
2017-09-28T10:18:27.678Z,58.1
2017-09-28T10:19:30.040Z,58.1
2017-09-28T10:20:32.400Z,58.1
2017-09-28T10:21:34.767Z,58.1
2017-09-28T10:22:37.123Z,58.4
2017-09-28T10:23:39.482Z,58.7
2017-09-28T10:24:43.707Z,58.6
2017-09-28T10:25:46.068Z,58.7
2017-09-28T10:26:48.428Z,58.9
2017-09-28T10:27:50.862Z,58.9
2017-09-28T10:28:53.224Z,58.5
2017-09-28T10:29:55.584Z,58.7
2017-09-28T10:30:58.748Z,58.8
2017-09-28T10:32:02.167Z,58.8
2017-09-28T10:33:04.660Z,58.6
2017-09-28T10:34:07.023Z,58.1
2017-09-28T10:35:09.390Z,58.3
2017-09-28T10:36:11.754Z,57.6
2017-09-28T10:37:14.118Z,56.8
2017-09-28T10:38:16.619Z,56.4
2017-09-28T10:39:18.991Z,55.8
2017-09-28T10:40:21.685Z,55.7
2017-09-28T10:41:24.404Z,55.7
2017-09-28T10:42:26.767Z,55.6
2017-09-28T10:43:29.131Z,55.6
2017-09-28T10:44:31.494Z,55.4
2017-09-28T10:45:34.199Z,55.3
2017-09-28T10:46:36.619Z,55.3
2017-09-28T10:47:38.982Z,55.2
2017-09-28T10:48:41.345Z,55.2
2017-09-28T10:49:43.711Z,55.1
2017-09-28T10:50:46.072Z,55.3
2017-09-28T10:51:48.437Z,55.4
2017-09-28T10:52:50.802Z,55.1
2017-09-28T10:53:53.231Z,55.1
2017-09-28T10:54:55.594Z,55.1
2017-09-28T10:55:58.052Z,55.1
2017-09-28T10:57:00.404Z,55.1
2017-09-28T10:58:02.807Z,55.1
2017-09-28T10:59:05.556Z,55.1
2017-09-28T11:00:08.086Z,55.1
2017-09-28T11:01:10.455Z,55
2017-09-28T11:02:12.836Z,54.9
2017-09-28T11:03:15.549Z,54.9
2017-09-28T11:04:17.960Z,54.8
2017-09-28T11:05:20.349Z,54.8
2017-09-28T11:06:22.714Z,54.9
2017-09-28T11:07:25.547Z,54.9
2017-09-28T11:08:27.910Z,55.2
2017-09-28T11:09:30.397Z,55.2
2017-09-28T11:10:32.759Z,55.3
2017-09-28T11:11:35.215Z,55.5
2017-09-28T11:12:37.576Z,55.9
2017-09-28T11:13:40.065Z,55.9
2017-09-28T11:14:42.428Z,56.2
2017-09-28T11:15:44.845Z,56
2017-09-28T11:16:47.209Z,56.4
2017-09-28T11:17:49.638Z,56.4
2017-09-28T11:18:52.000Z,56.4
2017-09-28T11:19:54.462Z,55.9
2017-09-28T11:20:56.826Z,55.5
2017-09-28T11:21:59.229Z,55.5
2017-09-28T11:23:01.593Z,55.6
2017-09-28T11:24:03.958Z,55.6
2017-09-28T11:25:06.320Z,55.6
2017-09-28T11:26:08.681Z,55.7
2017-09-28T11:27:11.044Z,55.7
2017-09-28T11:28:13.529Z,55.7
2017-09-28T11:29:15.893Z,55.8
2017-09-28T11:30:18.412Z,55.7
2017-09-28T11:31:20.779Z,55.1
2017-09-28T11:32:23.252Z,55.2
2017-09-28T11:33:25.604Z,55
2017-09-28T11:34:28.002Z,55
2017-09-28T11:35:30.410Z,54.8
2017-09-28T11:36:32.772Z,54.4
2017-09-28T11:37:35.222Z,54.2
2017-09-28T11:38:37.586Z,54.3
2017-09-28T11:39:39.955Z,54.3
2017-09-28T11:40:42.319Z,53.8
2017-09-28T11:41:44.684Z,53.9
2017-09-28T11:42:47.051Z,53.8
2017-09-28T11:43:49.471Z,53.8
2017-09-28T11:44:51.852Z,53.7
2017-09-28T11:45:54.231Z,53.5
2017-09-28T11:46:56.595Z,53.2
2017-09-28T11:47:58.961Z,53.1
2017-09-28T11:49:01.328Z,53
2017-09-28T11:50:03.705Z,53
2017-09-28T11:51:06.073Z,52.6
2017-09-28T11:52:08.440Z,52.5
2017-09-28T11:53:10.817Z,52
2017-09-28T11:54:13.187Z,51.6
2017-09-28T11:55:15.554Z,51.5
2017-09-28T11:56:17.940Z,51.7
2017-09-28T11:57:20.315Z,51.3
2017-09-28T11:58:22.683Z,51.6
2017-09-28T11:59:25.055Z,51.2
2017-09-28T12:00:27.789Z,51
2017-09-28T12:01:30.156Z,51
2017-09-28T12:02:32.538Z,50.9
2017-09-28T12:03:34.916Z,50.6
2017-09-28T12:04:37.310Z,50.5
2017-09-28T12:05:39.677Z,50.3
2017-09-28T12:06:42.046Z,50.2
2017-09-28T12:07:44.419Z,50
2017-09-28T12:08:46.789Z,49.8
2017-09-28T12:09:49.159Z,49.6
2017-09-28T12:10:51.526Z,49.6
2017-09-28T12:11:53.982Z,49.6
2017-09-28T12:12:56.394Z,49.7
2017-09-28T12:13:58.764Z,49.7
2017-09-28T12:15:01.134Z,49.8
2017-09-28T12:16:03.518Z,49.9
2017-09-28T12:17:05.887Z,50
2017-09-28T12:18:08.260Z,50.1
2017-09-28T12:19:10.646Z,50.1
2017-09-28T12:20:13.030Z,50.2
2017-09-28T12:21:15.415Z,50
2017-09-28T12:22:17.791Z,50
2017-09-28T12:23:20.160Z,50
2017-09-28T12:24:22.906Z,49.9
2017-09-28T12:25:25.295Z,50
2017-09-28T12:26:28.355Z,50.2
2017-09-28T12:27:30.721Z,50.2
2017-09-28T12:28:33.106Z,50
2017-09-28T12:29:35.867Z,50
2017-09-28T12:30:38.241Z,49.9
2017-09-28T12:31:40.606Z,49.8
2017-09-28T12:32:42.975Z,49.8
2017-09-28T12:33:45.346Z,49.7
2017-09-28T12:34:47.724Z,49.8
2017-09-28T12:35:50.109Z,49.8
2017-09-28T12:36:52.481Z,49.7
2017-09-28T12:37:54.884Z,49.7
2017-09-28T12:38:57.291Z,49.7
2017-09-28T12:40:00.061Z,49.8
2017-09-28T12:41:02.433Z,50
2017-09-28T12:42:04.814Z,50.2
2017-09-28T12:43:07.188Z,50.3
2017-09-28T12:44:09.551Z,50.5
2017-09-28T12:45:11.915Z,50.6
2017-09-28T12:46:14.281Z,50.8
2017-09-28T12:47:16.648Z,50.8
2017-09-28T12:48:19.022Z,51
2017-09-28T12:49:21.392Z,51.1
2017-09-28T12:50:23.763Z,51.1
2017-09-28T12:51:26.131Z,51.1
2017-09-28T12:52:28.602Z,51.1
2017-09-28T12:53:30.969Z,51.1
2017-09-28T12:54:33.389Z,51
2017-09-28T12:55:35.742Z,50.9
2017-09-28T12:56:38.157Z,50.8
2017-09-28T12:57:40.598Z,50.8
2017-09-28T12:58:42.972Z,51
2017-09-28T12:59:45.347Z,50.9
2017-09-28T13:00:47.713Z,50.9
2017-09-28T13:01:50.079Z,50.9
2017-09-28T13:02:52.446Z,51.1
2017-09-28T13:03:54.841Z,51.2
2017-09-28T13:04:57.259Z,51.4
2017-09-28T13:05:59.963Z,51.5
2017-09-28T13:07:02.440Z,51.6
2017-09-28T13:08:04.794Z,51.6
2017-09-28T13:09:26.371Z,51.6
2017-09-28T13:10:28.739Z,51.6
2017-09-28T13:11:31.103Z,51.6
2017-09-28T13:12:33.470Z,51.5
2017-09-28T13:13:35.862Z,51.5
2017-09-28T13:14:38.576Z,51.4
2017-09-28T13:15:40.937Z,51.3
2017-09-28T13:16:43.303Z,51.5
2017-09-28T13:17:45.670Z,51.5
2017-09-28T13:18:48.372Z,51.6
2017-09-28T13:19:50.740Z,51.6
2017-09-28T13:20:53.106Z,51.7
2017-09-28T13:21:55.469Z,51.8
2017-09-28T13:22:57.869Z,51.9
2017-09-28T13:24:00.244Z,52
2017-09-28T13:25:02.618Z,52
2017-09-28T13:26:04.995Z,52
2017-09-28T13:27:07.376Z,52
2017-09-28T13:28:10.101Z,52
2017-09-28T13:29:12.473Z,51.9
2017-09-28T13:30:14.838Z,52
2017-09-28T13:31:17.237Z,52.1
2017-09-28T13:32:19.634Z,52.2
2017-09-28T13:33:22.015Z,52.3
2017-09-28T13:34:24.383Z,52.4
2017-09-28T13:35:26.751Z,52.3
2017-09-28T13:36:29.129Z,52.4
2017-09-28T13:37:31.835Z,52.4
2017-09-28T13:38:34.238Z,52.4
2017-09-28T13:39:36.948Z,52.3
2017-09-28T13:40:39.668Z,52.5
2017-09-28T13:41:42.369Z,52.5
2017-09-28T13:42:44.734Z,52.5
2017-09-28T13:43:47.098Z,52.7
2017-09-28T13:44:49.466Z,52.8
2017-09-28T13:45:52.209Z,52.8
2017-09-28T13:46:54.584Z,53
2017-09-28T13:47:56.950Z,53.1
2017-09-28T13:48:59.649Z,53.2
2017-09-28T13:50:02.043Z,53.1
2017-09-28T13:51:04.418Z,53.1
2017-09-28T13:52:06.782Z,53.1
2017-09-28T13:53:09.145Z,53.1
2017-09-28T13:54:11.516Z,53.1
2017-09-28T13:55:13.880Z,53.2
2017-09-28T13:56:16.256Z,53.3
2017-09-28T13:57:18.621Z,53.3
2017-09-28T13:58:20.983Z,53.3
2017-09-28T13:59:23.373Z,53.4